Time;durP1;ratioP1;P1;durP2;ratioP2;P2;SDS_P1;SDS_P2;PMS_P1;PMS_P2;Temp;Humidity;BMP_temperature;BMP_pressure;BME280_temperature;BME280_humidity;BME280_pressure;Samples;Min_cycle;Max_cycle;Signal;HPM_P1;HPM_P2
2021/11/08 00:00:51;;;;;;;4.40;2.20;;;;;;;14.56;45.43;101091.75;5088180;28;20125;-76
2021/11/08 00:03:23;;;;;;;8.47;4.90;;;;;;;14.52;45.87;101076.59;5091634;28;20328;-59
2021/11/08 00:05:50;;;;;;;11.17;6.87;;;;;;;14.63;46.23;101081.03;5090867;28;20048;-59
2021/11/08 00:08:18;;;;;;;14.70;8.60;;;;;;;14.65;46.59;101089.16;5089277;28;20071;-60
2021/11/08 00:10:46;;;;;;;12.70;7.57;;;;;;;14.54;46.91;101081.94;5090777;28;20072;-62
2021/11/08 00:13:15;;;;;;;13.00;7.30;;;;;;;14.54;47.04;101090.38;5090650;28;20130;-60
2021/11/08 00:23:10;;;;;;;14.45;8.25;;;;;;;14.09;48.34;101096.03;5087669;28;20067;-61
2021/11/08 00:25:40;;;;;;;18.13;9.03;;;;;;;13.94;48.56;101093.31;5088447;28;20075;-66
2021/11/08 00:28:08;;;;;;;14.85;8.18;;;;;;;13.86;48.90;101091.94;5080726;28;20079;-60
2021/11/08 00:30:36;;;;;;;16.97;8.37;;;;;;;13.80;49.12;101098.72;5088496;28;20469;-64
2021/11/08 00:33:05;;;;;;;17.83;10.10;;;;;;;13.70;49.26;101081.91;5087287;28;20559;-61
2021/11/08 00:35:31;;;;;;;12.50;7.67;;;;;;;13.63;49.56;101075.78;5082034;28;20143;-62
2021/11/08 00:37:58;;;;;;;11.77;5.90;;;;;;;13.60;49.63;101076.38;5081448;28;20040;-61
2021/11/08 00:40:25;;;;;;;12.93;7.10;;;;;;;13.54;49.43;101071.91;5081167;28;20135;-59
2021/11/08 00:42:53;;;;;;;11.57;7.00;;;;;;;13.49;49.54;101076.41;5077868;28;20555;-59
2021/11/08 00:45:23;;;;;;;12.77;8.17;;;;;;;13.45;49.81;101075.31;5090528;28;20079;-59
2021/11/08 00:47:50;;;;;;;14.93;8.60;;;;;;;13.38;49.93;101080.41;5083268;28;20064;-59
2021/11/08 00:50:18;;;;;;;14.27;7.67;;;;;;;13.32;50.03;101069.47;5069819;28;20064;-58
2021/11/08 00:52:45;;;;;;;12.90;7.27;;;;;;;13.25;50.03;101070.63;5083509;28;20044;-56
2021/11/08 00:55:12;;;;;;;9.27;5.50;;;;;;;13.17;50.30;101068.38;5080658;28;20147;-58
2021/11/08 00:57:40;;;;;;;11.73;6.90;;;;;;;13.15;50.15;101073.44;5086319;28;20131;-54
2021/11/08 01:00:10;;;;;;;11.07;5.70;;;;;;;13.13;50.25;101069.22;5088158;28;20133;-60
2021/11/08 01:02:37;;;;;;;9.25;5.05;;;;;;;13.11;50.10;101063.06;5093853;28;20131;-60
2021/11/08 01:05:05;;;;;;;16.93;7.23;;;;;;;13.14;49.97;101068.13;5092569;28;20068;-60
2021/11/08 01:07:32;;;;;;;13.43;6.70;;;;;;;13.10;50.20;101058.59;5088684;28;20459;-59
2021/11/08 01:09:59;;;;;;;5.93;2.67;;;;;;;13.10;49.89;101061.41;5081072;28;20459;-60
2021/11/08 01:12:27;;;;;;;11.73;6.20;;;;;;;13.23;50.08;101066.38;5074818;28;20137;-63
2021/11/08 01:14:54;;;;;;;14.23;6.67;;;;;;;13.21;50.24;101068.66;5094310;28;20127;-62
2021/11/08 01:17:21;;;;;;;12.07;7.23;;;;;;;13.17;50.42;101068.38;5091175;28;20068;-61
2021/11/08 01:19:50;;;;;;;12.93;6.27;;;;;;;13.11;50.50;101068.69;5068454;28;20167;-60
2021/11/08 01:22:18;;;;;;;11.93;5.87;;;;;;;13.04;50.53;101064.19;5069234;28;20071;-59
2021/11/08 01:24:55;;;;;;;16.40;5.90;;;;;;;12.90;50.83;101051.06;5070378;28;20139;-59
2021/11/08 01:27:54;;;;;;;10.80;6.20;;;;;;;12.88;50.86;101072.94;5070248;28;20080;-59
2021/11/08 01:30:24;;;;;;;10.40;6.30;;;;;;;12.83;51.29;101087.81;5064754;28;20139;-56
2021/11/08 01:32:57;;;;;;;13.43;6.25;;;;;;;12.76;51.25;101084.47;5070199;28;20135;-57
2021/11/08 01:35:31;;;;;;;9.87;5.60;;;;;;;12.68;51.46;101087.81;5070327;28;20075;-60
2021/11/08 01:38:06;;;;;;;12.73;4.53;;;;;;;12.53;51.67;101080.28;5065110;28;20515;-59
2021/11/08 01:40:33;;;;;;;10.87;4.90;;;;;;;12.62;51.55;101081.41;5068014;28;20105;-57
2021/11/08 01:43:00;;;;;;;11.37;5.63;;;;;;;12.56;51.91;101079.72;5056229;28;20127;-59
2021/11/08 01:45:28;;;;;;;7.80;4.27;;;;;;;12.53;51.89;101085.88;5058329;28;20147;-60
2021/11/08 01:47:56;;;;;;;7.73;4.10;;;;;;;12.38;51.78;101061.50;5067698;28;20166;-58
2021/11/08 01:50:24;;;;;;;7.43;3.77;;;;;;;12.62;51.70;101086.16;5064925;28;20136;-59
2021/11/08 01:52:52;;;;;;;10.17;4.40;;;;;;;12.60;51.57;101066.81;5068975;28;20083;-59
2021/11/08 01:55:21;;;;;;;9.23;3.67;;;;;;;12.74;51.24;101078.28;5071722;28;20160;-60
2021/11/08 01:57:49;;;;;;;5.03;3.23;;;;;;;12.79;51.25;101083.91;5062629;28;20135;-59
2021/11/08 02:00:21;;;;;;;7.60;3.07;;;;;;;12.84;51.00;101092.28;5046482;28;20128;-59
2021/11/08 02:02:48;;;;;;;5.33;2.70;;;;;;;12.90;50.84;101095.94;5070026;28;20135;-59
2021/11/08 02:05:16;;;;;;;8.23;3.70;;;;;;;12.96;50.74;101095.63;5068786;28;20772;-59
2021/11/08 02:07:43;;;;;;;5.97;3.23;;;;;;;13.01;50.55;101090.00;5064625;28;20487;-59
2021/11/08 02:10:13;;;;;;;6.07;3.13;;;;;;;12.96;50.63;101058.34;5070051;28;20127;-60
2021/11/08 02:12:40;;;;;;;3.97;2.00;;;;;;;13.10;50.25;101069.81;5070542;28;20127;-59
2021/11/08 02:15:14;;;;;;;4.70;2.60;;;;;;;13.18;50.16;101061.63;5072318;28;20084;-59
2021/11/08 02:17:44;;;;;;;3.47;1.83;;;;;;;13.20;49.99;101061.38;5065319;28;20132;-59
2021/11/08 02:20:17;;;;;;;3.90;2.42;;;;;;;13.34;49.91;101059.66;5072711;28;20075;-59
2021/11/08 02:22:45;;;;;;;4.00;2.43;;;;;;;13.42;49.63;101069.44;5068102;28;20147;-59
2021/11/08 02:25:13;;;;;;;9.27;2.87;;;;;;;13.42;49.47;101058.22;5084568;28;20377;-59
2021/11/08 02:27:43;;;;;;;5.70;2.10;;;;;;;13.42;49.49;101064.66;5068890;28;20167;-59
2021/11/08 02:30:12;;;;;;;5.97;2.47;;;;;;;13.42;49.49;101064.66;5076258;28;20124;-59
2021/11/08 02:32:40;;;;;;;4.97;2.50;;;;;;;13.48;49.47;101068.28;5071057;28;20132;-62
2021/11/08 02:35:09;;;;;;;5.53;2.23;;;;;;;13.37;49.80;101056.28;5082521;28;20381;-62
2021/11/08 02:37:36;;;;;;;5.25;2.83;;;;;;;13.39;49.66;101070.84;5072261;28;20500;-62
2021/11/08 02:40:04;;;;;;;4.20;2.30;;;;;;;13.23;49.58;101067.25;5082012;28;20146;-62
2021/11/08 02:42:32;;;;;;;6.37;2.90;;;;;;;13.28;49.89;101086.03;5065278;28;20094;-62
2021/11/08 02:45:01;;;;;;;4.03;2.20;;;;;;;13.25;49.67;101076.22;5080018;28;20127;-61
2021/11/08 02:47:28;;;;;;;4.27;2.27;;;;;;;13.25;49.65;101075.38;5068749;28;20127;-61
2021/11/08 02:50:01;;;;;;;5.37;2.47;;;;;;;13.20;49.60;101062.19;5072342;28;20053;-61
2021/11/08 02:52:28;;;;;;;3.20;1.87;;;;;;;13.03;49.60;101028.88;5079816;28;20058;-61
2021/11/08 02:54:55;;;;;;;3.97;1.83;;;;;;;13.36;49.45;101060.19;5063533;28;20076;-59
2021/11/08 02:57:24;;;;;;;2.87;1.67;;;;;;;13.38;49.25;101057.13;5065321;28;20132;-59
2021/11/08 02:59:52;;;;;;;3.53;1.80;;;;;;;13.51;49.31;101068.56;5072602;28;20057;-62
2021/11/08 03:02:20;;;;;;;3.43;1.80;;;;;;;13.54;49.23;101058.72;5075634;28;20054;-62
2021/11/08 03:04:49;;;;;;;3.57;1.80;;;;;;;13.72;48.78;101071.25;5072225;28;20044;-63
2021/11/08 03:07:17;;;;;;;3.08;1.80;;;;;;;13.70;49.07;101049.06;5084983;28;20072;-61
2021/11/08 03:09:49;;;;;;;3.23;1.83;;;;;;;13.71;48.78;101041.53;5084120;28;20540;-60
2021/11/08 03:12:19;;;;;;;2.37;1.37;;;;;;;13.67;48.97;101046.84;5063948;28;20044;-60
2021/11/08 03:17:28;;;;;;;2.77;1.80;;;;;;;13.61;49.14;101047.19;5066105;28;20384;-61
2021/11/08 03:19:59;;;;;;;2.97;1.73;;;;;;;13.64;49.07;101050.25;5063718;28;20075;-59
2021/11/08 03:22:31;;;;;;;2.83;1.40;;;;;;;13.59;49.09;101027.00;5072371;28;20452;-60
2021/11/08 03:25:06;;;;;;;3.10;1.93;;;;;;;13.62;49.11;101034.84;5056046;28;20144;-59
2021/11/08 03:30:07;;;;;;;4.30;2.78;;;;;;;13.59;48.99;101001.72;5068753;28;20607;-60
2021/11/08 03:32:36;;;;;;;5.03;3.10;;;;;;;13.72;48.75;101029.16;5066208;28;20087;-59
2021/11/08 03:35:08;;;;;;;7.90;4.40;;;;;;;13.65;49.11;101018.25;5076612;28;20041;-59
2021/11/08 03:37:38;;;;;;;6.97;4.20;;;;;;;13.57;49.33;101009.59;5063850;28;20579;-58
2021/11/08 03:40:08;;;;;;;7.82;4.22;;;;;;;13.55;49.30;101011.88;5086372;28;20127;-58
2021/11/08 03:42:35;;;;;;;9.27;4.20;;;;;;;13.52;49.63;101019.72;5068274;28;20075;-59
2021/11/08 03:45:04;;;;;;;8.07;4.80;;;;;;;13.40;49.78;101008.03;5057615;28;20127;-59
2021/11/08 03:47:32;;;;;;;8.07;5.33;;;;;;;13.32;49.97;101011.41;5073405;28;20593;-59
2021/11/08 03:49:59;;;;;;;9.97;6.40;;;;;;;13.24;50.20;101012.84;5071855;28;20511;-59
2021/11/08 03:52:26;;;;;;;11.33;6.40;;;;;;;13.12;50.44;101019.88;5076772;28;20083;-59
2021/11/08 03:54:53;;;;;;;14.73;7.23;;;;;;;12.96;50.80;101013.50;5070718;28;20127;-59
2021/11/08 03:57:20;;;;;;;9.57;5.53;;;;;;;12.91;51.14;101013.50;5075453;28;20186;-58
2021/11/08 03:59:47;;;;;;;9.23;5.70;;;;;;;12.74;51.26;100985.81;5085529;28;20127;-59
2021/11/08 04:02:13;;;;;;;7.93;4.80;;;;;;;12.88;51.25;101003.69;5072752;28;20452;-59
2021/11/08 04:04:40;;;;;;;10.23;5.73;;;;;;;12.88;51.43;101003.69;5079617;28;20071;-58
2021/11/08 04:07:07;;;;;;;10.93;5.83;;;;;;;12.76;51.38;100972.34;5082973;28;20123;-58
2021/11/08 04:09:34;;;;;;;7.27;4.73;;;;;;;12.84;51.71;100998.94;5071918;28;20132;-58
2021/11/08 04:12:02;;;;;;;6.77;4.73;;;;;;;12.82;51.60;100990.84;5060556;28;20056;-58
2021/11/08 04:14:29;;;;;;;9.97;5.77;;;;;;;12.84;51.86;100987.75;5067408;28;20063;-58
2021/11/08 04:16:56;;;;;;;10.93;5.73;;;;;;;12.82;51.82;100993.66;5059398;28;20076;-58
2021/11/08 04:19:28;;;;;;;6.90;3.93;;;;;;;12.79;51.89;100985.81;5070829;28;20127;-58
2021/11/08 04:21:58;;;;;;;9.10;5.60;;;;;;;12.84;51.97;100982.13;5057995;28;20048;-59
2021/11/08 04:24:24;;;;;;;8.00;5.30;;;;;;;12.88;52.09;100991.66;5067759;28;20136;-58
2021/11/08 04:26:51;;;;;;;8.67;5.00;;;;;;;12.91;51.99;100980.69;5071885;28;20291;-59
2021/11/08 04:29:18;;;;;;;15.87;4.50;;;;;;;12.91;52.07;100974.25;5075253;28;20102;-59
2021/11/08 04:31:45;;;;;;;8.33;4.63;;;;;;;12.77;52.26;100957.22;5045261;28;20136;-59
2021/11/08 04:49:47;;;;;;;6.93;2.67;;;;;;;13.33;51.01;100990.63;5071658;28;20083;-63
2021/11/08 05:22:44;;;;;;;5.20;2.30;;;;;;;12.92;51.57;101009.56;5066371;28;20080;-61
2021/11/08 05:25:26;;;;;;;2.40;1.50;;;;;;;13.01;51.27;101017.09;5073650;28;20098;-60
2021/11/08 05:28:17;;;;;;;5.07;1.77;;;;;;;13.07;51.11;101017.09;5072051;28;20132;-60
2021/11/08 05:30:45;;;;;;;2.13;1.53;;;;;;;13.07;51.04;100997.47;5069456;28;20128;-60
2021/11/08 05:33:12;;;;;;;3.87;1.63;;;;;;;13.21;50.91;100998.53;5072414;28;20701;-59
2021/11/08 05:35:39;;;;;;;4.53;1.93;;;;;;;13.38;50.69;101010.25;5075316;28;20059;-59
2021/11/08 05:38:09;;;;;;;3.60;1.73;;;;;;;13.48;50.48;101007.41;5071012;28;20076;-59
2021/11/08 05:40:37;;;;;;;4.60;1.70;;;;;;;13.55;50.51;101007.09;5082207;28;20131;-60
2021/11/08 05:43:06;;;;;;;3.73;2.00;;;;;;;13.59;50.36;101013.78;5076198;28;20139;-61
2021/11/08 05:45:38;;;;;;;3.28;2.35;;;;;;;13.56;50.57;101008.75;5068258;28;20455;-60
2021/11/08 05:48:07;;;;;;;4.50;2.20;;;;;;;13.48;50.68;101001.78;5066220;28;20103;-60
2021/11/08 05:50:42;;;;;;;4.97;2.30;;;;;;;13.43;50.94;101010.22;5069773;28;20139;-60
2021/11/08 05:53:10;;;;;;;5.63;2.53;;;;;;;13.39;51.10;101009.13;5067534;28;20056;-56
2021/11/08 06:50:08;;;;;;;6.33;3.27;;;;;;;12.39;52.75;101001.56;5082737;28;20457;-55
2021/11/08 06:52:37;;;;;;;6.70;3.20;;;;;;;12.41;52.77;101004.94;5080440;28;20127;-56
2021/11/08 06:55:06;;;;;;;8.77;3.97;;;;;;;12.31;52.93;101004.94;5093878;28;20058;-59
2021/11/08 06:57:50;;;;;;;12.90;4.53;;;;;;;12.33;52.92;101036.28;5084061;28;20072;-55
2021/11/08 07:00:21;;;;;;;6.27;4.37;;;;;;;12.28;53.16;101030.72;5078946;28;20139;-54
2021/11/08 07:02:48;;;;;;;;;;;;;;;12.17;52.77;101027.06;5072588;28;20083;-56
2021/11/08 07:05:15;;;;;;;7.03;3.13;;;;;;;12.19;53.19;101041.63;5085136;28;20076;-55
2021/11/08 07:07:42;;;;;;;3.80;2.27;;;;;;;12.25;53.26;101046.09;5081948;28;20136;-56
2021/11/08 07:10:09;;;;;;;9.70;4.40;;;;;;;12.24;53.28;101036.03;5081219;28;20130;-55
2021/11/08 07:12:36;;;;;;;9.07;4.40;;;;;;;12.30;53.07;101059.25;5089773;28;20084;-55
2021/11/08 07:15:06;;;;;;;9.13;4.03;;;;;;;12.17;53.32;101045.81;5085065;28;20048;-55
2021/11/08 07:17:35;;;;;;;4.57;2.30;;;;;;;12.24;53.53;101060.38;5056966;28;20045;-56
2021/11/08 07:20:03;;;;;;;3.47;2.20;;;;;;;12.29;53.36;101063.19;5060800;28;20127;-57
2021/11/08 07:22:29;;;;;;;2.93;1.83;;;;;;;12.08;53.39;101012.78;5076335;28;20068;-57
2021/11/08 07:24:57;;;;;;;2.90;1.60;;;;;;;12.33;53.65;101048.34;5070426;28;20486;-55
2021/11/08 07:27:24;;;;;;;4.30;1.47;;;;;;;12.43;53.56;101039.09;5080346;28;20131;-55
2021/11/08 07:29:52;;;;;;;3.17;1.60;;;;;;;12.56;53.33;101035.72;5082377;28;20123;-53
2021/11/08 07:32:19;;;;;;;3.20;2.07;;;;;;;12.67;52.98;101030.94;5065647;28;20442;-55
2021/11/08 07:34:45;;;;;;;2.63;1.43;;;;;;;12.73;52.93;101017.75;5059415;28;20608;-55
2021/11/08 07:37:12;;;;;;;4.37;1.70;;;;;;;12.80;52.63;101012.69;5074332;28;20099;-55
2021/11/08 07:39:39;;;;;;;2.17;1.40;;;;;;;12.90;52.60;101026.69;5050501;28;20140;-56
2021/11/08 07:42:06;;;;;;;2.63;1.33;;;;;;;12.91;52.69;101017.13;5057023;28;20131;-55
2021/11/08 07:44:33;;;;;;;2.87;1.50;;;;;;;12.81;52.59;100981.56;5067511;28;20539;-60
2021/11/08 07:46:59;;;;;;;3.50;1.57;;;;;;;13.10;52.38;101006.16;5066345;28;20885;-55
2021/11/08 07:49:26;;;;;;;2.40;1.40;;;;;;;13.09;52.28;100995.22;5068565;28;20076;-53
2021/11/08 07:51:53;;;;;;;4.33;2.00;;;;;;;13.14;52.34;100995.19;5071698;28;20095;-54
2021/11/08 07:54:20;;;;;;;2.20;1.40;;;;;;;13.12;52.22;100987.06;5060330;28;20123;-55
2021/11/08 07:56:47;;;;;;;6.03;2.23;;;;;;;13.06;52.25;100993.84;5052104;28;20041;-54
2021/11/08 07:59:16;;;;;;;3.37;1.57;;;;;;;13.04;52.22;100974.50;5070989;28;20045;-55
2021/11/08 08:01:44;;;;;;;2.20;1.57;;;;;;;13.00;52.13;100956.56;5055971;28;20095;-55
2021/11/08 08:04:10;;;;;;;4.53;1.70;;;;;;;12.98;52.48;100981.22;5075533;28;20125;-53
2021/11/08 08:06:37;;;;;;;5.60;2.50;;;;;;;13.04;52.27;100991.31;5067332;28;20575;-53
2021/11/08 08:09:05;;;;;;;4.10;2.07;;;;;;;13.22;52.11;101003.00;5072315;28;20072;-53
2021/11/08 08:11:32;;;;;;;4.47;2.30;;;;;;;13.40;51.88;101036.06;5074788;28;20547;-53
2021/11/08 08:13:59;;;;;;;7.03;1.87;;;;;;;13.49;51.76;101016.66;5052749;28;20083;-53
2021/11/08 08:16:27;;;;;;;4.47;2.37;;;;;;;13.64;51.73;101038.16;5055086;28;20552;-54
2021/11/08 08:18:54;;;;;;;3.67;1.97;;;;;;;13.62;51.58;101032.03;5073020;28;20140;-54
2021/11/08 08:21:22;;;;;;;2.93;1.80;;;;;;;13.55;51.53;101029.53;5074758;28;20552;-55
2021/11/08 08:24:01;;;;;;;3.10;2.07;;;;;;;13.61;51.55;101036.81;5074090;28;20118;-55
2021/11/08 08:26:35;;;;;;;6.13;3.20;;;;;;;13.75;51.48;101043.44;5051581;28;20076;-53
2021/11/08 08:29:07;;;;;;;5.80;2.87;;;;;;;13.71;51.50;101047.97;5075229;28;20143;-54
2021/11/08 08:31:39;;;;;;;5.00;2.53;;;;;;;13.72;51.55;101046.00;5075108;28;20080;-54
2021/11/08 08:34:07;;;;;;;5.57;3.23;;;;;;;13.86;51.63;101054.63;5074379;28;20144;-54
2021/11/08 08:36:34;;;;;;;4.60;3.00;;;;;;;13.89;51.62;101051.22;5074466;28;20044;-53
2021/11/08 08:39:03;;;;;;;9.50;3.53;;;;;;;14.03;51.49;101043.81;5063173;28;20158;-54
2021/11/08 08:41:30;;;;;;;11.00;3.30;;;;;;;14.01;51.53;101034.00;5074909;28;20044;-53
2021/11/08 08:43:57;;;;;;;7.70;3.30;;;;;;;14.05;51.57;101018.25;5075157;28;20095;-54
2021/11/08 08:46:23;;;;;;;8.03;3.50;;;;;;;14.28;51.35;101037.16;5073854;28;20131;-54
2021/11/08 08:48:50;;;;;;;7.97;3.77;;;;;;;14.44;51.28;101052.75;5074365;28;20443;-53
2021/11/08 08:51:17;;;;;;;10.07;4.30;;;;;;;14.53;51.26;101046.53;5073348;28;20143;-55
2021/11/08 08:53:44;;;;;;;4.60;2.93;;;;;;;14.57;51.07;101042.03;5072965;28;20076;-55
2021/11/08 08:56:20;;;;;;;4.43;1.70;;;;;;;14.26;50.81;101019.78;5080538;28;20040;-54
2021/11/08 08:58:52;;;;;;;2.25;1.48;;;;;;;14.12;50.51;101019.63;5089807;28;20044;-53
2021/11/08 09:01:21;;;;;;;5.97;1.97;;;;;;;13.93;50.86;101013.84;5089853;28;20072;-55
2021/11/08 09:03:48;;;;;;;1.37;0.90;;;;;;;13.74;51.01;101016.53;5076532;28;20127;-54
2021/11/08 09:06:15;;;;;;;3.50;1.50;;;;;;;13.73;51.18;101047.66;5089472;28;20483;-55
2021/11/08 09:08:42;;;;;;;7.13;1.80;;;;;;;13.71;50.96;101030.28;5076795;28;20064;-56
2021/11/08 09:11:10;;;;;;;4.20;1.90;;;;;;;13.91;50.98;101040.53;5094644;28;20411;-55
2021/11/08 09:13:37;;;;;;;3.43;1.60;;;;;;;13.88;50.77;101018.66;5085985;28;20044;-53
2021/11/08 09:16:11;;;;;;;5.57;2.40;;;;;;;14.12;50.63;101044.03;5095676;28;20127;-52
2021/11/08 09:18:48;;;;;;;4.90;2.17;;;;;;;14.48;50.63;101046.56;5089390;28;20480;-53
2021/11/08 09:21:17;;;;;;;5.17;3.03;;;;;;;15.28;50.48;101049.69;5092265;28;20145;-54
2021/11/08 09:23:46;;;;;;;6.13;3.43;;;;;;;15.74;50.13;101035.00;5073063;28;20182;-53
2021/11/08 09:26:13;;;;;;;5.00;2.87;;;;;;;16.20;49.58;101053.19;5088802;28;20140;-52
2021/11/08 09:28:41;;;;;;;4.03;2.37;;;;;;;16.52;49.07;101058.03;5092814;28;20082;-54
2021/11/08 09:31:08;;;;;;;9.80;2.92;;;;;;;16.66;48.52;101043.97;5111810;28;20131;-52
2021/11/08 09:33:36;;;;;;;5.85;2.72;;;;;;;17.03;47.85;101054.31;5093013;28;20048;-50
2021/11/08 09:36:06;;;;;;;6.05;2.97;;;;;;;17.90;47.64;101058.13;5074087;28;20079;-53
2021/11/08 09:38:38;;;;;;;8.32;4.40;;;;;;;19.16;46.59;101053.22;5084460;28;20086;-54
2021/11/08 09:41:11;;;;;;;6.05;3.35;;;;;;;19.86;45.34;101042.97;5074322;28;20556;-54
2021/11/08 09:43:39;;;;;;;10.60;3.72;;;;;;;20.12;44.73;101042.97;5068045;28;20069;-53
2021/11/08 09:46:07;;;;;;;5.25;3.08;;;;;;;20.26;44.06;101033.47;5073771;28;20144;-53
2021/11/08 09:48:39;;;;;;;5.88;3.35;;;;;;;20.81;43.69;101041.25;5074337;28;20040;-54
2021/11/08 09:51:13;;;;;;;7.63;3.85;;;;;;;21.38;43.04;101032.38;5090390;28;20583;-53
2021/11/08 09:53:40;;;;;;;5.47;2.97;;;;;;;21.70;42.14;100999.56;5082744;28;20143;-54
2021/11/08 09:56:09;;;;;;;5.18;2.75;;;;;;;22.50;41.11;101040.44;5090124;28;20122;-55
2021/11/08 09:58:57;;;;;;;6.95;3.65;;;;;;;22.91;40.81;101011.03;5081503;28;20094;-55
2021/11/08 10:01:47;;;;;;;6.05;3.97;;;;;;;23.14;39.56;101012.25;5093871;28;20044;-55
2021/11/08 10:04:16;;;;;;;5.45;3.55;;;;;;;23.23;38.38;101022.72;5079379;28;20048;-54
2021/11/08 10:06:44;;;;;;;9.40;3.45;;;;;;;23.53;37.73;101029.00;5073742;28;20477;-54
2021/11/08 10:09:13;;;;;;;5.47;3.85;;;;;;;23.19;37.96;101031.13;5084767;28;20488;-52
2021/11/08 10:11:41;;;;;;;5.85;4.05;;;;;;;22.75;38.04;101033.63;5106711;28;20151;-51
2021/11/08 10:14:08;;;;;;;12.57;4.35;;;;;;;22.41;38.40;101032.81;5078789;28;20544;-53
2021/11/08 10:16:38;;;;;;;9.20;3.65;;;;;;;22.35;38.44;101050.44;5063589;28;20467;-53
2021/11/08 10:19:07;;;;;;;6.35;3.58;;;;;;;22.18;38.93;101059.94;5071670;28;20115;-55
2021/11/08 10:21:46;;;;;;;8.65;4.00;;;;;;;22.25;39.20;101063.06;5072222;28;20076;-55
2021/11/08 10:24:24;;;;;;;6.88;4.13;;;;;;;22.40;38.90;101059.59;5075271;28;20169;-55
2021/11/08 10:26:54;;;;;;;8.02;4.15;;;;;;;22.36;38.61;101066.31;5067788;28;20132;-60
2021/11/08 10:29:23;;;;;;;7.22;4.43;;;;;;;23.03;38.13;101056.63;5071944;28;20127;-58
2021/11/08 10:32:08;;;;;;;8.40;4.30;;;;;;;24.14;36.93;101063.19;5072625;28;20492;-55
2021/11/08 10:34:45;;;;;;;6.95;4.20;;;;;;;25.19;36.76;101062.97;5073575;28;20114;-55
2021/11/08 10:37:22;;;;;;;5.90;4.18;;;;;;;25.99;35.27;101044.53;5071804;28;20040;-54
2021/11/08 10:39:50;;;;;;;8.23;4.57;;;;;;;26.49;33.55;101067.72;5078833;28;20735;-53
2021/11/08 10:42:26;;;;;;;7.38;5.05;;;;;;;26.34;32.98;101060.03;5071425;28;20044;-54
2021/11/08 10:44:53;;;;;;;5.85;3.65;;;;;;;26.72;32.40;101058.38;5067403;28;20048;-54
2021/11/08 10:47:21;;;;;;;7.68;4.57;;;;;;;26.53;31.66;101062.06;5071701;28;20114;-54
2021/11/08 10:49:48;;;;;;;6.85;5.00;;;;;;;26.63;30.76;101050.88;5072383;28;20131;-54
2021/11/08 10:52:17;;;;;;;12.80;4.70;;;;;;;26.38;31.22;101058.06;5072298;28;20571;-53
2021/11/08 10:54:53;;;;;;;9.55;4.45;;;;;;;26.21;31.43;101054.44;5071572;28;20128;-53
2021/11/08 10:57:24;;;;;;;7.18;4.25;;;;;;;25.42;32.03;101042.31;5069772;28;20044;-55
2021/11/08 10:59:52;;;;;;;7.45;4.43;;;;;;;24.96;32.30;101037.03;5071098;28;20124;-55
2021/11/08 11:02:23;;;;;;;7.57;5.13;;;;;;;24.48;32.81;101038.09;5074523;28;20076;-55
2021/11/08 11:04:59;;;;;;;13.65;6.45;;;;;;;23.56;32.89;101025.44;5070757;28;20067;-56
2021/11/08 11:07:36;;;;;;;10.38;5.50;;;;;;;22.92;33.93;101027.78;5069481;28;20040;-54
2021/11/08 11:10:12;;;;;;;8.95;4.47;;;;;;;22.22;34.38;101029.63;5071640;28;20044;-54
2021/11/08 11:12:45;;;;;;;12.90;5.65;;;;;;;21.53;35.15;101014.72;5070583;28;20128;-54
2021/11/08 11:15:16;;;;;;;8.85;4.43;;;;;;;21.19;36.07;101037.59;5075353;28;20079;-54
2021/11/08 11:17:45;;;;;;;9.55;4.88;;;;;;;20.83;36.63;101033.22;5089698;28;20087;-54
2021/11/08 11:20:19;;;;;;;12.02;5.80;;;;;;;20.78;36.84;101024.88;5090412;28;20068;-54
2021/11/08 11:23:02;;;;;;;7.68;4.88;;;;;;;21.10;36.86;101033.97;5089739;28;20097;-54
2021/11/08 11:25:31;;;;;;;8.95;4.88;;;;;;;21.46;36.88;101031.47;5093742;28;20456;-56
2021/11/08 11:28:00;;;;;;;14.50;6.35;;;;;;;21.47;36.80;101020.94;5089370;28;20123;-55
2021/11/08 11:30:36;;;;;;;9.18;4.40;;;;;;;21.41;36.88;101025.19;5090217;28;20119;-55
2021/11/08 11:33:08;;;;;;;7.80;3.92;;;;;;;21.20;37.43;101027.94;5089869;28;20044;-55
2021/11/08 11:35:49;;;;;;;7.13;3.35;;;;;;;20.99;37.47;101011.63;5089374;28;20056;-55
2021/11/08 11:38:22;;;;;;;10.32;4.20;;;;;;;20.88;37.71;101007.47;5089780;28;20071;-55
2021/11/08 11:40:58;;;;;;;13.25;4.38;;;;;;;20.87;37.76;101017.19;5086337;28;20044;-55
2021/11/08 11:43:49;;;;;;;7.15;4.18;;;;;;;20.54;38.06;101017.75;5087520;28;20127;-55
2021/11/08 11:46:25;;;;;;;8.43;3.08;;;;;;;20.43;38.24;101010.75;5080699;28;20332;-53
2021/11/08 11:48:57;;;;;;;7.88;3.92;;;;;;;20.44;38.59;101011.56;5085426;28;20047;-55
2021/11/08 11:51:27;;;;;;;7.30;4.82;;;;;;;21.61;37.79;101023.56;5089948;28;20075;-55
2021/11/08 11:53:56;;;;;;;8.13;4.20;;;;;;;23.67;35.46;101023.78;5090396;28;20126;-54
2021/11/08 11:56:26;;;;;;;5.23;4.70;;;;;;;24.50;34.71;101007.16;5088726;28;20058;-54
2021/11/08 11:58:53;;;;;;;8.32;4.63;;;;;;;24.73;33.88;101001.69;5091502;28;20514;-53
2021/11/08 12:01:23;;;;;;;7.93;4.38;;;;;;;24.37;34.15;101003.50;5092328;28;20078;-55
2021/11/08 12:03:51;;;;;;;9.40;3.65;;;;;;;24.07;34.01;101008.75;5093407;28;20052;-55
2021/11/08 12:06:24;;;;;;;6.38;4.07;;;;;;;24.69;34.29;101003.63;5089680;28;20075;-55
2021/11/08 12:08:54;;;;;;;8.07;4.38;;;;;;;24.82;32.97;100996.66;5089535;28;20449;-54
2021/11/08 12:11:32;;;;;;;8.93;4.25;;;;;;;24.42;33.68;100985.34;5088618;28;20078;-54
2021/11/08 12:14:12;;;;;;;7.85;4.20;;;;;;;24.23;34.04;100975.38;5085247;28;20530;-54
2021/11/08 12:17:08;;;;;;;7.22;4.32;;;;;;;24.21;33.73;100980.63;5073813;28;20135;-54
2021/11/08 12:19:38;;;;;;;8.85;4.15;;;;;;;24.05;34.04;100974.88;5070357;28;20053;-55
2021/11/08 12:22:11;;;;;;;;;;;;;;;24.24;34.86;100977.06;5071230;28;20045;-56
2021/11/08 12:24:39;;;;;;;6.30;4.88;;;;;;;25.19;33.19;100977.22;5102870;28;19967;-56
2021/11/08 12:27:09;;;;;;;7.78;5.03;;;;;;;26.80;31.41;100945.56;5111393;28;20085;-55
2021/11/08 12:29:49;;;;;;;7.90;6.20;;;;;;;28.18;30.11;100934.59;5078870;28;20055;-54
2021/11/08 12:32:15;;;;;;;;;;;;;;;30.25;29.47;100960.56;5075557;28;20090;-57
2021/11/08 12:34:46;;;;;;;10.27;6.72;;;;;;;31.27;27.49;100958.28;5090239;28;19930;-55
2021/11/08 12:37:14;;;;;;;11.40;6.63;;;;;;;32.24;25.94;100961.81;5090480;28;20090;-55
2021/11/08 12:39:54;;;;;;;9.07;5.80;;;;;;;32.99;25.20;100950.69;5095177;28;20123;-55
2021/11/08 12:42:22;;;;;;;6.22;5.20;;;;;;;33.52;24.61;100959.31;5107415;28;20135;-54
2021/11/08 12:44:50;;;;;;;8.68;5.30;;;;;;;33.86;24.25;100956.47;5096446;28;20071;-55
2021/11/08 12:47:29;;;;;;;6.80;5.50;;;;;;;33.86;24.61;100944.88;5107800;28;20764;-55
2021/11/08 12:49:56;;;;;;;7.38;5.40;;;;;;;34.25;23.34;100960.97;5102269;28;20044;-55
2021/11/08 12:52:31;;;;;;;6.75;5.10;;;;;;;34.48;23.38;100949.47;5108642;28;20131;-54
2021/11/08 12:55:06;;;;;;;8.90;6.13;;;;;;;34.92;22.94;100952.59;5110495;28;20131;-54
2021/11/08 12:57:35;;;;;;;7.28;5.35;;;;;;;35.22;22.10;100948.81;5115005;28;20127;-56
2021/11/08 13:00:22;;;;;;;10.25;5.28;;;;;;;35.58;22.09;100926.56;5106983;28;20082;-56
2021/11/08 13:02:55;;;;;;;10.57;6.05;;;;;;;36.02;20.94;100938.19;5077965;28;20083;-56
2021/11/08 13:05:39;;;;;;;12.23;5.70;;;;;;;36.02;21.58;100939.00;5085689;28;20052;-54
2021/11/08 13:08:27;;;;;;;8.35;4.53;;;;;;;33.56;22.94;100940.66;5091624;28;20116;-55
2021/11/08 13:11:06;;;;;;;9.50;4.40;;;;;;;31.09;24.84;100920.81;5073975;28;20048;-55
2021/11/08 13:13:34;;;;;;;8.15;4.80;;;;;;;29.33;25.99;100922.19;5078828;28;20127;-56
2021/11/08 13:16:11;;;;;;;7.25;4.80;;;;;;;27.94;27.09;100923.63;5087939;28;20127;-54
2021/11/08 13:18:42;;;;;;;8.80;4.85;;;;;;;26.68;27.88;100918.75;5089109;28;20443;-55
2021/11/08 13:21:18;;;;;;;6.75;4.45;;;;;;;25.64;28.67;100918.66;5091198;28;20106;-54
2021/11/08 13:23:44;;;;;;;14.27;5.47;;;;;;;24.75;29.74;100910.75;5098568;28;20090;-55
2021/11/08 13:26:11;;;;;;;11.10;4.85;;;;;;;24.01;30.85;100916.06;5077945;28;20273;-54
2021/11/08 13:28:38;;;;;;;10.25;4.93;;;;;;;23.48;31.06;100906.66;5076876;28;20123;-54
2021/11/08 13:31:08;;;;;;;10.82;5.28;;;;;;;23.02;31.15;100901.16;5073879;28;20080;-56